Airport View

Enter AWOS ICAO identifier for current METAR.

ex. KFNL

KEPH 191853Z AUTO 30022G31KT 10SM CLR 23/M07 A2997 RMK AO2 PK WND 30035/1829 SLP141 T02281072

19 Jun 2019 19:51

Frequency: 135.775

Phone: 509-754-3761

Other Area AWOS: KMWH - KEAT - KELN - KHMS

TAF KMWH 191738Z 1918/2018 28018G26KT P6SM FEW080 FM200000 29022G30KT P6SM FEW080 FM200400 29015G22KT P6SM FEW070 SCT150 FM200700 27010KT P6SM BKN150